sensor_id;sensor_type;location;lat;lon;timestamp;P1;durP1;ratioP1;P2;durP2;ratioP2
17504;SDS011;8870;50.950;11.762;2024-01-06T00:00:49;4.85;;;1.73;;
17504;SDS011;8870;50.950;11.762;2024-01-06T00:06:08;2.80;;;1.40;;
17504;SDS011;8870;50.950;11.762;2024-01-06T00:11:44;3.15;;;1.60;;
17504;SDS011;8870;50.950;11.762;2024-01-06T00:17:03;3.85;;;1.50;;
17504;SDS011;8870;50.950;11.762;2024-01-06T00:22:34;2.45;;;1.42;;
17504;SDS011;8870;50.950;11.762;2024-01-06T00:27:55;4.18;;;1.55;;
17504;SDS011;8870;50.950;11.762;2024-01-06T00:33:27;5.60;;;1.60;;
17504;SDS011;8870;50.950;11.762;2024-01-06T00:38:46;2.47;;;1.40;;
17504;SDS011;8870;50.950;11.762;2024-01-06T00:44:19;4.10;;;1.50;;
17504;SDS011;8870;50.950;11.762;2024-01-06T00:49:37;3.35;;;1.75;;
17504;SDS011;8870;50.950;11.762;2024-01-06T00:55:09;4.75;;;1.40;;
17504;SDS011;8870;50.950;11.762;2024-01-06T01:00:30;6.45;;;1.90;;
17504;SDS011;8870;50.950;11.762;2024-01-06T01:06:01;4.65;;;1.80;;
17504;SDS011;8870;50.950;11.762;2024-01-06T01:11:20;5.95;;;1.70;;
17504;SDS011;8870;50.950;11.762;2024-01-06T01:16:54;6.35;;;2.00;;
17504;SDS011;8870;50.950;11.762;2024-01-06T01:22:13;2.58;;;1.70;;
17504;SDS011;8870;50.950;11.762;2024-01-06T01:27:44;4.85;;;1.80;;
17504;SDS011;8870;50.950;11.762;2024-01-06T01:33:18;4.28;;;1.83;;
17504;SDS011;8870;50.950;11.762;2024-01-06T01:38:36;7.00;;;2.00;;
17504;SDS011;8870;50.950;11.762;2024-01-06T01:44:08;5.43;;;2.13;;
17504;SDS011;8870;50.950;11.762;2024-01-06T01:49:29;4.35;;;1.77;;
17504;SDS011;8870;50.950;11.762;2024-01-06T01:55:00;3.45;;;1.65;;
17504;SDS011;8870;50.950;11.762;2024-01-06T02:00:19;3.50;;;1.52;;
17504;SDS011;8870;50.950;11.762;2024-01-06T02:05:53;4.85;;;1.77;;
17504;SDS011;8870;50.950;11.762;2024-01-06T02:11:12;5.75;;;1.98;;
17504;SDS011;8870;50.950;11.762;2024-01-06T02:16:42;4.88;;;1.80;;
17504;SDS011;8870;50.950;11.762;2024-01-06T02:22:03;7.63;;;2.00;;
17504;SDS011;8870;50.950;11.762;2024-01-06T02:27:34;5.28;;;2.33;;
17504;SDS011;8870;50.950;11.762;2024-01-06T02:32:53;5.95;;;2.00;;
17504;SDS011;8870;50.950;11.762;2024-01-06T02:38:26;4.97;;;2.00;;
17504;SDS011;8870;50.950;11.762;2024-01-06T02:43:46;6.70;;;1.95;;
17504;SDS011;8870;50.950;11.762;2024-01-06T02:49:17;5.35;;;1.85;;
17504;SDS011;8870;50.950;11.762;2024-01-06T02:54:38;6.18;;;1.77;;
17504;SDS011;8870;50.950;11.762;2024-01-06T03:00:10;3.95;;;1.70;;
17504;SDS011;8870;50.950;11.762;2024-01-06T03:05:29;3.97;;;1.48;;
17504;SDS011;8870;50.950;11.762;2024-01-06T03:11:03;3.47;;;1.52;;
17504;SDS011;8870;50.950;11.762;2024-01-06T03:16:21;5.13;;;1.83;;
17504;SDS011;8870;50.950;11.762;2024-01-06T03:21:52;5.70;;;1.85;;
17504;SDS011;8870;50.950;11.762;2024-01-06T03:27:13;3.60;;;1.60;;
17504;SDS011;8870;50.950;11.762;2024-01-06T03:32:45;5.13;;;1.90;;
17504;SDS011;8870;50.950;11.762;2024-01-06T03:38:04;4.03;;;1.70;;
17504;SDS011;8870;50.950;11.762;2024-01-06T03:43:37;4.25;;;1.70;;
17504;SDS011;8870;50.950;11.762;2024-01-06T03:48:56;4.88;;;1.83;;
17504;SDS011;8870;50.950;11.762;2024-01-06T03:54:26;3.30;;;1.50;;
17504;SDS011;8870;50.950;11.762;2024-01-06T03:59:47;5.32;;;1.70;;
17504;SDS011;8870;50.950;11.762;2024-01-06T04:05:18;4.40;;;1.58;;
17504;SDS011;8870;50.950;11.762;2024-01-06T04:10:37;2.83;;;1.75;;
17504;SDS011;8870;50.950;11.762;2024-01-06T04:16:10;2.60;;;1.70;;
17504;SDS011;8870;50.950;11.762;2024-01-06T04:21:29;4.40;;;1.83;;
17504;SDS011;8870;50.950;11.762;2024-01-06T04:27:00;5.47;;;1.83;;
17504;SDS011;8870;50.950;11.762;2024-01-06T04:32:21;6.53;;;1.60;;
17504;SDS011;8870;50.950;11.762;2024-01-06T04:37:53;4.18;;;1.75;;
17504;SDS011;8870;50.950;11.762;2024-01-06T04:43:12;6.03;;;1.67;;
17504;SDS011;8870;50.950;11.762;2024-01-06T04:48:45;5.72;;;1.73;;
17504;SDS011;8870;50.950;11.762;2024-01-06T04:54:04;4.63;;;1.40;;
17504;SDS011;8870;50.950;11.762;2024-01-06T04:59:34;5.35;;;1.80;;
17504;SDS011;8870;50.950;11.762;2024-01-06T05:04:55;3.50;;;1.75;;
17504;SDS011;8870;50.950;11.762;2024-01-06T05:10:27;4.18;;;1.52;;
17504;SDS011;8870;50.950;11.762;2024-01-06T05:15:46;4.40;;;1.75;;
17504;SDS011;8870;50.950;11.762;2024-01-06T05:21:19;7.90;;;1.88;;
17504;SDS011;8870;50.950;11.762;2024-01-06T05:26:38;4.68;;;1.80;;
17504;SDS011;8870;50.950;11.762;2024-01-06T05:32:08;3.42;;;1.80;;
17504;SDS011;8870;50.950;11.762;2024-01-06T05:37:29;3.92;;;1.60;;
17504;SDS011;8870;50.950;11.762;2024-01-06T05:43:03;3.97;;;1.80;;
17504;SDS011;8870;50.950;11.762;2024-01-06T05:48:21;3.80;;;1.70;;
17504;SDS011;8870;50.950;11.762;2024-01-06T05:53:54;4.30;;;1.83;;
17504;SDS011;8870;50.950;11.762;2024-01-06T05:59:13;4.53;;;1.92;;
17504;SDS011;8870;50.950;11.762;2024-01-06T06:04:44;4.63;;;1.80;;
17504;SDS011;8870;50.950;11.762;2024-01-06T06:10:19;4.80;;;1.77;;
17504;SDS011;8870;50.950;11.762;2024-01-06T06:15:38;5.03;;;1.90;;
17504;SDS011;8870;50.950;11.762;2024-01-06T06:21:09;5.18;;;2.00;;
17504;SDS011;8870;50.950;11.762;2024-01-06T06:26:30;3.97;;;1.58;;
17504;SDS011;8870;50.950;11.762;2024-01-06T06:32:02;5.10;;;1.90;;
17504;SDS011;8870;50.950;11.762;2024-01-06T06:37:33;4.57;;;1.63;;
17504;SDS011;8870;50.950;11.762;2024-01-06T06:42:54;5.43;;;2.10;;
17504;SDS011;8870;50.950;11.762;2024-01-06T06:48:26;4.57;;;1.90;;
17504;SDS011;8870;50.950;11.762;2024-01-06T06:53:44;5.82;;;2.10;;
17504;SDS011;8870;50.950;11.762;2024-01-06T06:59:17;6.03;;;2.20;;
17504;SDS011;8870;50.950;11.762;2024-01-06T07:04:36;4.50;;;1.90;;
17504;SDS011;8870;50.950;11.762;2024-01-06T07:10:07;4.32;;;2.00;;
17504;SDS011;8870;50.950;11.762;2024-01-06T07:15:28;4.65;;;1.80;;
17504;SDS011;8870;50.950;11.762;2024-01-06T07:20:59;4.60;;;1.95;;
17504;SDS011;8870;50.950;11.762;2024-01-06T07:26:18;5.50;;;2.50;;
17504;SDS011;8870;50.950;11.762;2024-01-06T07:31:51;7.03;;;1.90;;
17504;SDS011;8870;50.950;11.762;2024-01-06T07:37:22;5.00;;;2.10;;
17504;SDS011;8870;50.950;11.762;2024-01-06T07:42:41;6.85;;;2.20;;
17504;SDS011;8870;50.950;11.762;2024-01-06T07:48:15;3.97;;;2.42;;
17504;SDS011;8870;50.950;11.762;2024-01-06T07:53:34;4.72;;;1.80;;
17504;SDS011;8870;50.950;11.762;2024-01-06T07:59:04;5.80;;;2.25;;
17504;SDS011;8870;50.950;11.762;2024-01-06T08:04:25;5.07;;;2.05;;
17504;SDS011;8870;50.950;11.762;2024-01-06T08:09:57;4.45;;;2.20;;
17504;SDS011;8870;50.950;11.762;2024-01-06T08:15:20;4.60;;;2.22;;
17504;SDS011;8870;50.950;11.762;2024-01-06T08:20:53;4.10;;;2.20;;
17504;SDS011;8870;50.950;11.762;2024-01-06T08:26:12;5.63;;;2.10;;
17504;SDS011;8870;50.950;11.762;2024-01-06T08:31:44;6.60;;;2.33;;
17504;SDS011;8870;50.950;11.762;2024-01-06T08:37:04;5.53;;;3.08;;
17504;SDS011;8870;50.950;11.762;2024-01-06T08:42:36;5.20;;;2.65;;
17504;SDS011;8870;50.950;11.762;2024-01-06T08:47:54;4.00;;;2.50;;
17504;SDS011;8870;50.950;11.762;2024-01-06T08:53:27;5.93;;;2.30;;
17504;SDS011;8870;50.950;11.762;2024-01-06T08:58:46;5.38;;;2.47;;
17504;SDS011;8870;50.950;11.762;2024-01-06T09:04:19;3.50;;;2.00;;
17504;SDS011;8870;50.950;11.762;2024-01-06T09:09:39;2.95;;;1.90;;
17504;SDS011;8870;50.950;11.762;2024-01-06T09:15:12;3.88;;;2.10;;
17504;SDS011;8870;50.950;11.762;2024-01-06T09:20:30;5.32;;;2.28;;
17504;SDS011;8870;50.950;11.762;2024-01-06T09:26:03;5.45;;;2.65;;
17504;SDS011;8870;50.950;11.762;2024-01-06T09:31:22;3.83;;;2.42;;
17504;SDS011;8870;50.950;11.762;2024-01-06T09:36:52;6.00;;;2.72;;
17504;SDS011;8870;50.950;11.762;2024-01-06T09:42:13;4.20;;;2.60;;
17504;SDS011;8870;50.950;11.762;2024-01-06T09:47:45;6.70;;;2.60;;
17504;SDS011;8870;50.950;11.762;2024-01-06T09:53:08;6.32;;;2.90;;
17504;SDS011;8870;50.950;11.762;2024-01-06T09:58:43;5.00;;;2.83;;
17504;SDS011;8870;50.950;11.762;2024-01-06T10:04:02;6.60;;;2.80;;
17504;SDS011;8870;50.950;11.762;2024-01-06T10:09:38;4.43;;;2.75;;
17504;SDS011;8870;50.950;11.762;2024-01-06T10:14:58;5.30;;;2.67;;
17504;SDS011;8870;50.950;11.762;2024-01-06T10:20:29;4.00;;;2.60;;
17504;SDS011;8870;50.950;11.762;2024-01-06T10:25:48;5.05;;;2.58;;
17504;SDS011;8870;50.950;11.762;2024-01-06T10:31:25;5.40;;;2.70;;
17504;SDS011;8870;50.950;11.762;2024-01-06T10:36:44;4.80;;;2.80;;
17504;SDS011;8870;50.950;11.762;2024-01-06T10:42:16;6.25;;;3.10;;
17504;SDS011;8870;50.950;11.762;2024-01-06T10:47:39;5.07;;;3.22;;
17504;SDS011;8870;50.950;11.762;2024-01-06T10:53:12;6.00;;;3.00;;
17504;SDS011;8870;50.950;11.762;2024-01-06T10:58:31;5.88;;;2.97;;
17504;SDS011;8870;50.950;11.762;2024-01-06T11:04:09;4.03;;;3.15;;
17504;SDS011;8870;50.950;11.762;2024-01-06T11:09:29;6.75;;;3.67;;
17504;SDS011;8870;50.950;11.762;2024-01-06T11:15:06;4.88;;;3.30;;
17504;SDS011;8870;50.950;11.762;2024-01-06T11:20:27;6.85;;;3.25;;
17504;SDS011;8870;50.950;11.762;2024-01-06T11:25:59;4.10;;;2.70;;
17504;SDS011;8870;50.950;11.762;2024-01-06T11:31:17;7.60;;;3.58;;
17504;SDS011;8870;50.950;11.762;2024-01-06T11:36:51;5.15;;;3.08;;
17504;SDS011;8870;50.950;11.762;2024-01-06T11:42:10;4.90;;;2.50;;
17504;SDS011;8870;50.950;11.762;2024-01-06T11:47:44;5.13;;;2.40;;
17504;SDS011;8870;50.950;11.762;2024-01-06T11:53:08;4.45;;;2.42;;
17504;SDS011;8870;50.950;11.762;2024-01-06T11:58:40;11.50;;;8.13;;
17504;SDS011;8870;50.950;11.762;2024-01-06T12:03:58;4.75;;;3.22;;
17504;SDS011;8870;50.950;11.762;2024-01-06T12:09:32;5.82;;;3.17;;
17504;SDS011;8870;50.950;11.762;2024-01-06T12:14:51;4.05;;;2.70;;
17504;SDS011;8870;50.950;11.762;2024-01-06T12:20:22;4.50;;;2.60;;
17504;SDS011;8870;50.950;11.762;2024-01-06T12:25:43;4.05;;;2.63;;
17504;SDS011;8870;50.950;11.762;2024-01-06T12:31:15;4.55;;;2.40;;
17504;SDS011;8870;50.950;11.762;2024-01-06T12:36:34;4.82;;;2.70;;
17504;SDS011;8870;50.950;11.762;2024-01-06T12:42:11;5.00;;;2.50;;
17504;SDS011;8870;50.950;11.762;2024-01-06T12:47:35;4.13;;;2.20;;
17504;SDS011;8870;50.950;11.762;2024-01-06T12:53:07;5.03;;;2.60;;
17504;SDS011;8870;50.950;11.762;2024-01-06T12:58:29;3.30;;;2.20;;
17504;SDS011;8870;50.950;11.762;2024-01-06T13:04:01;4.03;;;2.88;;
17504;SDS011;8870;50.950;11.762;2024-01-06T13:09:19;4.93;;;2.85;;
17504;SDS011;8870;50.950;11.762;2024-01-06T13:14:52;3.53;;;2.40;;
17504;SDS011;8870;50.950;11.762;2024-01-06T13:20:11;3.85;;;2.97;;
17504;SDS011;8870;50.950;11.762;2024-01-06T13:25:42;4.30;;;3.20;;
17504;SDS011;8870;50.950;11.762;2024-01-06T13:31:03;5.25;;;3.75;;
17504;SDS011;8870;50.950;11.762;2024-01-06T13:36:34;5.65;;;4.00;;
17504;SDS011;8870;50.950;11.762;2024-01-06T13:41:52;4.35;;;3.20;;
17504;SDS011;8870;50.950;11.762;2024-01-06T13:47:27;5.38;;;3.70;;
17504;SDS011;8870;50.950;11.762;2024-01-06T13:52:46;4.65;;;3.30;;
17504;SDS011;8870;50.950;11.762;2024-01-06T13:58:18;3.50;;;1.58;;
17504;SDS011;8870;50.950;11.762;2024-01-06T14:03:39;2.42;;;1.23;;
17504;SDS011;8870;50.950;11.762;2024-01-06T14:09:10;2.65;;;1.20;;
17504;SDS011;8870;50.950;11.762;2024-01-06T14:14:29;3.35;;;1.30;;
17504;SDS011;8870;50.950;11.762;2024-01-06T14:20:06;4.15;;;1.75;;
17504;SDS011;8870;50.950;11.762;2024-01-06T14:25:27;3.77;;;1.60;;
17504;SDS011;8870;50.950;11.762;2024-01-06T14:30:58;2.88;;;1.52;;
17504;SDS011;8870;50.950;11.762;2024-01-06T14:36:18;3.20;;;1.80;;
17504;SDS011;8870;50.950;11.762;2024-01-06T14:41:50;3.92;;;1.80;;
17504;SDS011;8870;50.950;11.762;2024-01-06T14:47:16;4.40;;;2.00;;
17504;SDS011;8870;50.950;11.762;2024-01-06T14:52:51;7.30;;;2.10;;
17504;SDS011;8870;50.950;11.762;2024-01-06T14:58:10;5.43;;;2.25;;
17504;SDS011;8870;50.950;11.762;2024-01-06T15:03:42;4.45;;;2.28;;
17504;SDS011;8870;50.950;11.762;2024-01-06T15:09:03;6.40;;;3.25;;
17504;SDS011;8870;50.950;11.762;2024-01-06T15:14:35;4.25;;;2.58;;
17504;SDS011;8870;50.950;11.762;2024-01-06T15:19:53;5.78;;;3.30;;
17504;SDS011;8870;50.950;11.762;2024-01-06T15:25:27;8.00;;;4.60;;
17504;SDS011;8870;50.950;11.762;2024-01-06T15:30:46;6.03;;;3.97;;
17504;SDS011;8870;50.950;11.762;2024-01-06T15:36:21;6.05;;;4.95;;
17504;SDS011;8870;50.950;11.762;2024-01-06T15:41:42;8.95;;;6.53;;
17504;SDS011;8870;50.950;11.762;2024-01-06T15:47:15;11.13;;;7.55;;
17504;SDS011;8870;50.950;11.762;2024-01-06T15:52:33;8.80;;;7.82;;
17504;SDS011;8870;50.950;11.762;2024-01-06T15:58:09;12.77;;;11.02;;
17504;SDS011;8870;50.950;11.762;2024-01-06T16:03:28;14.93;;;13.32;;
17504;SDS011;8870;50.950;11.762;2024-01-06T16:08:59;15.45;;;13.27;;
17504;SDS011;8870;50.950;11.762;2024-01-06T16:14:20;18.85;;;13.95;;
17504;SDS011;8870;50.950;11.762;2024-01-06T16:19:51;16.85;;;12.98;;
17504;SDS011;8870;50.950;11.762;2024-01-06T16:25:14;16.85;;;13.00;;
17504;SDS011;8870;50.950;11.762;2024-01-06T16:30:47;15.95;;;13.50;;
17504;SDS011;8870;50.950;11.762;2024-01-06T16:36:06;20.13;;;13.90;;
17504;SDS011;8870;50.950;11.762;2024-01-06T16:41:39;17.65;;;14.07;;
17504;SDS011;8870;50.950;11.762;2024-01-06T16:47:00;16.92;;;13.95;;
17504;SDS011;8870;50.950;11.762;2024-01-06T16:52:31;14.63;;;11.23;;
17504;SDS011;8870;50.950;11.762;2024-01-06T16:57:51;16.95;;;11.77;;
17504;SDS011;8870;50.950;11.762;2024-01-06T17:03:26;15.77;;;11.80;;
17504;SDS011;8870;50.950;11.762;2024-01-06T17:08:45;16.13;;;14.48;;
17504;SDS011;8870;50.950;11.762;2024-01-06T17:14:16;20.63;;;17.58;;
17504;SDS011;8870;50.950;11.762;2024-01-06T17:19:37;24.15;;;17.48;;
17504;SDS011;8870;50.950;11.762;2024-01-06T17:25:08;63.92;;;19.00;;
17504;SDS011;8870;50.950;11.762;2024-01-06T17:30:27;47.67;;;21.85;;
17504;SDS011;8870;50.950;11.762;2024-01-06T17:36:01;243.27;;;24.02;;
17504;SDS011;8870;50.950;11.762;2024-01-06T17:41:20;149.98;;;22.75;;
17504;SDS011;8870;50.950;11.762;2024-01-06T17:47:07;349.15;;;25.23;;
17504;SDS011;8870;50.950;11.762;2024-01-06T17:52:29;224.88;;;24.85;;
17504;SDS011;8870;50.950;11.762;2024-01-06T17:58:01;102.57;;;25.08;;
17504;SDS011;8870;50.950;11.762;2024-01-06T18:03:19;236.63;;;25.42;;
17504;SDS011;8870;50.950;11.762;2024-01-06T18:08:52;221.68;;;27.08;;
17504;SDS011;8870;50.950;11.762;2024-01-06T18:14:11;195.77;;;25.15;;
17504;SDS011;8870;50.950;11.762;2024-01-06T18:19:42;130.60;;;24.42;;
17504;SDS011;8870;50.950;11.762;2024-01-06T18:25:03;115.22;;;23.85;;
17504;SDS011;8870;50.950;11.762;2024-01-06T18:30:35;117.15;;;23.75;;
17504;SDS011;8870;50.950;11.762;2024-01-06T18:35:53;238.88;;;24.70;;
17504;SDS011;8870;50.950;11.762;2024-01-06T18:41:26;136.82;;;26.33;;
17504;SDS011;8870;50.950;11.762;2024-01-06T18:46:45;93.43;;;26.05;;
17504;SDS011;8870;50.950;11.762;2024-01-06T18:52:16;245.55;;;28.90;;
17504;SDS011;8870;50.950;11.762;2024-01-06T18:57:38;243.32;;;34.72;;
17504;SDS011;8870;50.950;11.762;2024-01-06T19:03:11;101.82;;;34.03;;
17504;SDS011;8870;50.950;11.762;2024-01-06T19:08:29;61.10;;;26.90;;
17504;SDS011;8870;50.950;11.762;2024-01-06T19:14:03;76.35;;;26.95;;
17504;SDS011;8870;50.950;11.762;2024-01-06T19:19:22;100.28;;;29.85;;
17504;SDS011;8870;50.950;11.762;2024-01-06T19:24:56;112.15;;;27.67;;
17504;SDS011;8870;50.950;11.762;2024-01-06T19:30:17;183.35;;;28.95;;
17504;SDS011;8870;50.950;11.762;2024-01-06T19:35:48;379.15;;;30.58;;
17504;SDS011;8870;50.950;11.762;2024-01-06T19:41:06;541.92;;;32.83;;
17504;SDS011;8870;50.950;11.762;2024-01-06T19:46:39;458.67;;;34.95;;
17504;SDS011;8870;50.950;11.762;2024-01-06T19:51:58;431.60;;;32.88;;
17504;SDS011;8870;50.950;11.762;2024-01-06T19:57:29;391.45;;;32.22;;
17504;SDS011;8870;50.950;11.762;2024-01-06T20:02:49;442.10;;;33.08;;
17504;SDS011;8870;50.950;11.762;2024-01-06T20:08:26;313.08;;;31.05;;
17504;SDS011;8870;50.950;11.762;2024-01-06T20:13:44;333.02;;;31.15;;
17504;SDS011;8870;50.950;11.762;2024-01-06T20:19:19;254.07;;;31.17;;
17504;SDS011;8870;50.950;11.762;2024-01-06T20:24:38;188.23;;;31.33;;
17504;SDS011;8870;50.950;11.762;2024-01-06T20:30:09;289.85;;;30.52;;
17504;SDS011;8870;50.950;11.762;2024-01-06T20:35:34;280.30;;;32.05;;
17504;SDS011;8870;50.950;11.762;2024-01-06T20:41:05;215.43;;;31.60;;
17504;SDS011;8870;50.950;11.762;2024-01-06T20:46:31;214.93;;;32.45;;
17504;SDS011;8870;50.950;11.762;2024-01-06T20:52:08;176.68;;;32.03;;
17504;SDS011;8870;50.950;11.762;2024-01-06T20:57:26;191.65;;;31.15;;
17504;SDS011;8870;50.950;11.762;2024-01-06T21:02:58;78.63;;;27.08;;
17504;SDS011;8870;50.950;11.762;2024-01-06T21:08:20;84.75;;;30.58;;
17504;SDS011;8870;50.950;11.762;2024-01-06T21:13:51;94.03;;;30.50;;
17504;SDS011;8870;50.950;11.762;2024-01-06T21:19:09;105.40;;;29.63;;
17504;SDS011;8870;50.950;11.762;2024-01-06T21:24:47;105.75;;;29.58;;
17504;SDS011;8870;50.950;11.762;2024-01-06T21:30:06;149.23;;;29.50;;
17504;SDS011;8870;50.950;11.762;2024-01-06T21:35:40;129.02;;;30.20;;
17504;SDS011;8870;50.950;11.762;2024-01-06T21:41:01;122.03;;;30.65;;
17504;SDS011;8870;50.950;11.762;2024-01-06T21:46:32;175.10;;;29.27;;
17504;SDS011;8870;50.950;11.762;2024-01-06T21:52:03;164.70;;;31.17;;
17504;SDS011;8870;50.950;11.762;2024-01-06T21:57:26;266.20;;;32.83;;
17504;SDS011;8870;50.950;11.762;2024-01-06T22:02:57;247.95;;;33.15;;
17504;SDS011;8870;50.950;11.762;2024-01-06T22:08:15;351.92;;;34.95;;
17504;SDS011;8870;50.950;11.762;2024-01-06T22:13:48;328.27;;;36.67;;
17504;SDS011;8870;50.950;11.762;2024-01-06T22:19:14;482.63;;;38.45;;
17504;SDS011;8870;50.950;11.762;2024-01-06T22:24:45;368.05;;;37.83;;
17504;SDS011;8870;50.950;11.762;2024-01-06T22:30:06;473.13;;;39.00;;
17504;SDS011;8870;50.950;11.762;2024-01-06T22:35:38;411.63;;;39.47;;
17504;SDS011;8870;50.950;11.762;2024-01-06T22:40:57;363.55;;;42.80;;
17504;SDS011;8870;50.950;11.762;2024-01-06T22:46:30;520.50;;;41.22;;
17504;SDS011;8870;50.950;11.762;2024-01-06T22:51:49;570.92;;;43.55;;
17504;SDS011;8870;50.950;11.762;2024-01-06T22:57:20;522.13;;;43.88;;
17504;SDS011;8870;50.950;11.762;2024-01-06T23:02:41;472.65;;;42.72;;
17504;SDS011;8870;50.950;11.762;2024-01-06T23:08:12;518.95;;;43.90;;
17504;SDS011;8870;50.950;11.762;2024-01-06T23:13:30;534.97;;;43.97;;
17504;SDS011;8870;50.950;11.762;2024-01-06T23:19:04;563.78;;;41.95;;
17504;SDS011;8870;50.950;11.762;2024-01-06T23:24:36;449.15;;;39.13;;
17504;SDS011;8870;50.950;11.762;2024-01-06T23:29:54;207.40;;;33.78;;
17504;SDS011;8870;50.950;11.762;2024-01-06T23:35:29;253.73;;;33.95;;
17504;SDS011;8870;50.950;11.762;2024-01-06T23:40:47;313.88;;;34.55;;
17504;SDS011;8870;50.950;11.762;2024-01-06T23:46:18;344.90;;;35.40;;
17504;SDS011;8870;50.950;11.762;2024-01-06T23:51:42;496.30;;;39.97;;
17504;SDS011;8870;50.950;11.762;2024-01-06T23:57:00;522.28;;;42.42;;
